sensor_id;sensor_type;location;lat;lon;timestamp;pressure;altitude;pressure_sealevel;temperature
34023;BMP280;20673;48.980;8.138;2022-09-20T00:01:24;100673.11;;;8.00
34023;BMP280;20673;48.980;8.138;2022-09-20T00:03:57;100671.44;;;7.93
34023;BMP280;20673;48.980;8.138;2022-09-20T00:06:27;100671.52;;;7.92
34023;BMP280;20673;48.980;8.138;2022-09-20T00:08:54;100668.45;;;7.90
34023;BMP280;20673;48.980;8.138;2022-09-20T00:11:28;100673.25;;;7.90
34023;BMP280;20673;48.980;8.138;2022-09-20T00:13:57;100670.25;;;7.91
34023;BMP280;20673;48.980;8.138;2022-09-20T00:16:33;100670.80;;;7.92
34023;BMP280;20673;48.980;8.138;2022-09-20T00:19:01;100666.54;;;7.94
34023;BMP280;20673;48.980;8.138;2022-09-20T00:21:33;100669.56;;;7.91
34023;BMP280;20673;48.980;8.138;2022-09-20T00:24:01;100666.70;;;7.89
34023;BMP280;20673;48.980;8.138;2022-09-20T00:26:28;100671.64;;;7.93
34023;BMP280;20673;48.980;8.138;2022-09-20T00:28:56;100665.15;;;7.92
34023;BMP280;20673;48.980;8.138;2022-09-20T00:31:23;100659.07;;;7.95
34023;BMP280;20673;48.980;8.138;2022-09-20T00:33:58;100664.64;;;7.90
34023;BMP280;20673;48.980;8.138;2022-09-20T00:36:43;100661.40;;;7.92
34023;BMP280;20673;48.980;8.138;2022-09-20T00:39:15;100664.90;;;7.92
34023;BMP280;20673;48.980;8.138;2022-09-20T00:41:40;100663.59;;;7.95
34023;BMP280;20673;48.980;8.138;2022-09-20T00:45:04;100664.04;;;8.00
34023;BMP280;20673;48.980;8.138;2022-09-20T00:55:41;100670.51;;;7.99
34023;BMP280;20673;48.980;8.138;2022-09-20T00:58:08;100663.54;;;8.01
34023;BMP280;20673;48.980;8.138;2022-09-20T01:00:36;100665.44;;;8.04
34023;BMP280;20673;48.980;8.138;2022-09-20T01:03:06;100668.29;;;8.05
34023;BMP280;20673;48.980;8.138;2022-09-20T01:05:34;100662.49;;;8.08
34023;BMP280;20673;48.980;8.138;2022-09-20T01:08:02;100663.53;;;8.11
34023;BMP280;20673;48.980;8.138;2022-09-20T01:10:31;100664.58;;;8.10
34023;BMP280;20673;48.980;8.138;2022-09-20T01:12:57;100663.20;;;8.13
34023;BMP280;20673;48.980;8.138;2022-09-20T01:15:27;100666.76;;;8.12
34023;BMP280;20673;48.980;8.138;2022-09-20T01:17:57;100659.93;;;8.15
34023;BMP280;20673;48.980;8.138;2022-09-20T01:20:41;100657.09;;;8.16
34023;BMP280;20673;48.980;8.138;2022-09-20T01:31:46;100664.71;;;8.16
34023;BMP280;20673;48.980;8.138;2022-09-20T01:34:28;100660.12;;;8.21
34023;BMP280;20673;48.980;8.138;2022-09-20T01:40:02;100663.64;;;8.12
34023;BMP280;20673;48.980;8.138;2022-09-20T01:42:38;100666.22;;;8.08
34023;BMP280;20673;48.980;8.138;2022-09-20T01:45:27;100663.47;;;8.05
34023;BMP280;20673;48.980;8.138;2022-09-20T01:48:16;100663.92;;;8.03
34023;BMP280;20673;48.980;8.138;2022-09-20T01:51:08;100664.72;;;7.99
34023;BMP280;20673;48.980;8.138;2022-09-20T01:56:46;100660.42;;;7.95
34023;BMP280;20673;48.980;8.138;2022-09-20T02:16:44;100659.34;;;8.07
34023;BMP280;20673;48.980;8.138;2022-09-20T02:28:32;100655.65;;;8.20
34023;BMP280;20673;48.980;8.138;2022-09-20T02:42:43;100655.77;;;8.10
34023;BMP280;20673;48.980;8.138;2022-09-20T02:45:31;100661.43;;;8.08
34023;BMP280;20673;48.980;8.138;2022-09-20T02:48:02;100660.01;;;8.05
34023;BMP280;20673;48.980;8.138;2022-09-20T03:05:10;100673.73;;;8.12
34023;BMP280;20673;48.980;8.138;2022-09-20T03:16:31;100689.04;;;8.24
34023;BMP280;20673;48.980;8.138;2022-09-20T03:33:28;100695.38;;;8.52
34023;BMP280;20673;48.980;8.138;2022-09-20T03:45:15;100690.59;;;8.71
34023;BMP280;20673;48.980;8.138;2022-09-20T04:11:15;100696.79;;;8.82
34023;BMP280;20673;48.980;8.138;2022-09-20T04:14:17;100695.68;;;8.84
34023;BMP280;20673;48.980;8.138;2022-09-20T04:16:50;100691.83;;;8.84
34023;BMP280;20673;48.980;8.138;2022-09-20T04:19:39;100690.42;;;8.86
34023;BMP280;20673;48.980;8.138;2022-09-20T04:22:08;100693.99;;;8.88
34023;BMP280;20673;48.980;8.138;2022-09-20T04:27:31;100692.00;;;8.88
34023;BMP280;20673;48.980;8.138;2022-09-20T04:30:24;100696.97;;;8.87
34023;BMP280;20673;48.980;8.138;2022-09-20T04:33:06;100697.52;;;8.87
34023;BMP280;20673;48.980;8.138;2022-09-20T04:36:01;100702.91;;;8.89
34023;BMP280;20673;48.980;8.138;2022-09-20T04:38:50;100703.65;;;8.88
34023;BMP280;20673;48.980;8.138;2022-09-20T04:53:45;100705.04;;;8.82
34023;BMP280;20673;48.980;8.138;2022-09-20T04:56:26;100709.18;;;8.81
34023;BMP280;20673;48.980;8.138;2022-09-20T04:59:04;100717.82;;;8.77
34023;BMP280;20673;48.980;8.138;2022-09-20T05:02:23;100717.84;;;8.75
34023;BMP280;20673;48.980;8.138;2022-09-20T05:05:28;100728.58;;;8.73
34023;BMP280;20673;48.980;8.138;2022-09-20T05:10:33;100731.36;;;8.73
34023;BMP280;20673;48.980;8.138;2022-09-20T05:13:18;100736.37;;;8.74
34023;BMP280;20673;48.980;8.138;2022-09-20T05:16:07;100739.80;;;8.76
34023;BMP280;20673;48.980;8.138;2022-09-20T05:19:06;100742.43;;;8.76
34023;BMP280;20673;48.980;8.138;2022-09-20T05:27:46;100742.83;;;8.74
34023;BMP280;20673;48.980;8.138;2022-09-20T05:30:39;100743.92;;;8.76
34023;BMP280;20673;48.980;8.138;2022-09-20T05:34:18;100743.09;;;8.79
34023;BMP280;20673;48.980;8.138;2022-09-20T05:39:36;100748.03;;;8.89
34023;BMP280;20673;48.980;8.138;2022-09-20T05:42:24;100750.89;;;8.94
34023;BMP280;20673;48.980;8.138;2022-09-20T05:45:21;100753.43;;;9.02
34023;BMP280;20673;48.980;8.138;2022-09-20T05:50:58;100756.11;;;9.19
34023;BMP280;20673;48.980;8.138;2022-09-20T06:02:56;100760.42;;;9.47
34023;BMP280;20673;48.980;8.138;2022-09-20T06:17:06;100755.71;;;9.95
34023;BMP280;20673;48.980;8.138;2022-09-20T06:19:45;100758.00;;;10.01
34023;BMP280;20673;48.980;8.138;2022-09-20T06:22:30;100757.50;;;10.13
34023;BMP280;20673;48.980;8.138;2022-09-20T06:30:35;100767.09;;;10.45
34023;BMP280;20673;48.980;8.138;2022-09-20T06:33:20;100764.97;;;10.55
34023;BMP280;20673;48.980;8.138;2022-09-20T06:36:03;100768.67;;;10.67
34023;BMP280;20673;48.980;8.138;2022-09-20T06:42:12;100764.38;;;10.92
34023;BMP280;20673;48.980;8.138;2022-09-20T06:44:38;100765.06;;;11.02
34023;BMP280;20673;48.980;8.138;2022-09-20T06:47:09;100768.47;;;11.08
34023;BMP280;20673;48.980;8.138;2022-09-20T06:49:35;100768.42;;;11.21
34023;BMP280;20673;48.980;8.138;2022-09-20T06:52:06;100763.97;;;11.25
34023;BMP280;20673;48.980;8.138;2022-09-20T06:54:35;100771.09;;;11.29
34023;BMP280;20673;48.980;8.138;2022-09-20T06:57:04;100775.01;;;11.34
34023;BMP280;20673;48.980;8.138;2022-09-20T06:59:31;100779.93;;;11.46
34023;BMP280;20673;48.980;8.138;2022-09-20T07:01:57;100774.64;;;11.54
34023;BMP280;20673;48.980;8.138;2022-09-20T07:04:24;100768.66;;;11.51
34023;BMP280;20673;48.980;8.138;2022-09-20T07:07:03;100767.23;;;11.53
34023;BMP280;20673;48.980;8.138;2022-09-20T07:09:22;100775.31;;;11.80
34023;BMP280;20673;48.980;8.138;2022-09-20T07:11:48;100780.14;;;11.80
34023;BMP280;20673;48.980;8.138;2022-09-20T07:14:14;100776.29;;;11.84
34023;BMP280;20673;48.980;8.138;2022-09-20T07:16:41;100779.00;;;12.11
34023;BMP280;20673;48.980;8.138;2022-09-20T07:19:07;100785.13;;;12.28
34023;BMP280;20673;48.980;8.138;2022-09-20T07:21:33;100777.28;;;12.43
34023;BMP280;20673;48.980;8.138;2022-09-20T07:23:59;100778.99;;;12.41
34023;BMP280;20673;48.980;8.138;2022-09-20T07:26:28;100779.28;;;12.49
34023;BMP280;20673;48.980;8.138;2022-09-20T07:28:56;100781.61;;;12.54
34023;BMP280;20673;48.980;8.138;2022-09-20T07:31:24;100789.93;;;12.69
34023;BMP280;20673;48.980;8.138;2022-09-20T07:33:51;100785.79;;;12.76
34023;BMP280;20673;48.980;8.138;2022-09-20T07:36:17;100786.00;;;12.90
34023;BMP280;20673;48.980;8.138;2022-09-20T07:38:49;100780.81;;;13.12
34023;BMP280;20673;48.980;8.138;2022-09-20T07:41:16;100789.18;;;13.14
34023;BMP280;20673;48.980;8.138;2022-09-20T07:43:47;100791.40;;;13.12
34023;BMP280;20673;48.980;8.138;2022-09-20T07:46:15;100787.73;;;13.21
34023;BMP280;20673;48.980;8.138;2022-09-20T07:48:41;100798.22;;;13.51
34023;BMP280;20673;48.980;8.138;2022-09-20T07:51:11;100795.73;;;13.80
34023;BMP280;20673;48.980;8.138;2022-09-20T07:53:39;100798.54;;;13.93
34023;BMP280;20673;48.980;8.138;2022-09-20T07:56:14;100801.50;;;14.13
34023;BMP280;20673;48.980;8.138;2022-09-20T07:58:42;100805.15;;;14.18
34023;BMP280;20673;48.980;8.138;2022-09-20T08:01:12;100807.75;;;14.46
34023;BMP280;20673;48.980;8.138;2022-09-20T08:03:39;100805.76;;;14.44
34023;BMP280;20673;48.980;8.138;2022-09-20T08:06:09;100802.06;;;14.66
34023;BMP280;20673;48.980;8.138;2022-09-20T08:08:39;100802.50;;;15.08
34023;BMP280;20673;48.980;8.138;2022-09-20T08:11:12;100801.02;;;15.05
34023;BMP280;20673;48.980;8.138;2022-09-20T08:13:43;100802.83;;;15.26
34023;BMP280;20673;48.980;8.138;2022-09-20T08:16:10;100803.73;;;15.49
34023;BMP280;20673;48.980;8.138;2022-09-20T08:18:48;100805.11;;;15.58
34023;BMP280;20673;48.980;8.138;2022-09-20T08:21:13;100808.48;;;15.63
34023;BMP280;20673;48.980;8.138;2022-09-20T08:23:45;100814.45;;;15.66
34023;BMP280;20673;48.980;8.138;2022-09-20T08:26:17;100811.70;;;16.00
34023;BMP280;20673;48.980;8.138;2022-09-20T08:28:45;100807.97;;;15.85
34023;BMP280;20673;48.980;8.138;2022-09-20T08:31:16;100813.76;;;16.27
34023;BMP280;20673;48.980;8.138;2022-09-20T08:33:47;100808.09;;;16.21
34023;BMP280;20673;48.980;8.138;2022-09-20T08:36:18;100808.59;;;16.25
34023;BMP280;20673;48.980;8.138;2022-09-20T08:38:45;100807.77;;;16.39
34023;BMP280;20673;48.980;8.138;2022-09-20T08:46:33;100800.50;;;16.97
34023;BMP280;20673;48.980;8.138;2022-09-20T08:49:04;100802.17;;;17.09
34023;BMP280;20673;48.980;8.138;2022-09-20T08:51:36;100802.23;;;17.36
34023;BMP280;20673;48.980;8.138;2022-09-20T08:54:05;100810.04;;;17.25
34023;BMP280;20673;48.980;8.138;2022-09-20T08:56:35;100811.26;;;17.35
34023;BMP280;20673;48.980;8.138;2022-09-20T08:59:03;100805.87;;;17.63
34023;BMP280;20673;48.980;8.138;2022-09-20T09:01:30;100805.18;;;17.43
34023;BMP280;20673;48.980;8.138;2022-09-20T09:06:39;100810.00;;;18.05
34023;BMP280;20673;48.980;8.138;2022-09-20T09:09:06;100804.29;;;17.91
34023;BMP280;20673;48.980;8.138;2022-09-20T09:11:33;100804.75;;;18.41
34023;BMP280;20673;48.980;8.138;2022-09-20T09:14:04;100805.09;;;18.53
34023;BMP280;20673;48.980;8.138;2022-09-20T09:16:33;100807.10;;;19.07
34023;BMP280;20673;48.980;8.138;2022-09-20T09:22:01;100804.18;;;18.84
34023;BMP280;20673;48.980;8.138;2022-09-20T09:24:28;100808.68;;;19.13
34023;BMP280;20673;48.980;8.138;2022-09-20T09:27:14;100802.89;;;19.64
34023;BMP280;20673;48.980;8.138;2022-09-20T09:29:53;100791.48;;;19.57
34023;BMP280;20673;48.980;8.138;2022-09-20T09:32:25;100797.65;;;19.20
34023;BMP280;20673;48.980;8.138;2022-09-20T09:38:00;100790.26;;;18.81
34023;BMP280;20673;48.980;8.138;2022-09-20T09:40:31;100791.15;;;18.98
34023;BMP280;20673;48.980;8.138;2022-09-20T09:43:01;100787.34;;;18.95
34023;BMP280;20673;48.980;8.138;2022-09-20T09:45:35;100784.59;;;18.72
34023;BMP280;20673;48.980;8.138;2022-09-20T09:48:28;100784.95;;;18.29
34023;BMP280;20673;48.980;8.138;2022-09-20T09:51:13;100783.82;;;18.78
34023;BMP280;20673;48.980;8.138;2022-09-20T09:53:45;100774.31;;;19.55
34023;BMP280;20673;48.980;8.138;2022-09-20T09:59:15;100776.40;;;19.75
34023;BMP280;20673;48.980;8.138;2022-09-20T10:02:07;100768.92;;;20.02
34023;BMP280;20673;48.980;8.138;2022-09-20T10:07:12;100767.68;;;20.45
34023;BMP280;20673;48.980;8.138;2022-09-20T10:38:14;100749.95;;;18.05
34023;BMP280;20673;48.980;8.138;2022-09-20T10:41:14;100750.40;;;18.13
34023;BMP280;20673;48.980;8.138;2022-09-20T10:44:28;100756.39;;;18.28
34023;BMP280;20673;48.980;8.138;2022-09-20T11:09:08;100743.32;;;22.02
34023;BMP280;20673;48.980;8.138;2022-09-20T11:11:44;100748.62;;;21.17
34023;BMP280;20673;48.980;8.138;2022-09-20T11:14:37;100752.48;;;20.28
34023;BMP280;20673;48.980;8.138;2022-09-20T11:22:44;100767.01;;;18.36
34023;BMP280;20673;48.980;8.138;2022-09-20T11:25:20;100775.01;;;17.88
34023;BMP280;20673;48.980;8.138;2022-09-20T11:28:20;100784.87;;;17.68
34023;BMP280;20673;48.980;8.138;2022-09-20T11:31:03;100787.67;;;17.44
34023;BMP280;20673;48.980;8.138;2022-09-20T11:34:02;100782.22;;;17.26
34023;BMP280;20673;48.980;8.138;2022-09-20T11:36:56;100772.98;;;17.13
34023;BMP280;20673;48.980;8.138;2022-09-20T11:39:42;100775.18;;;17.21
34023;BMP280;20673;48.980;8.138;2022-09-20T11:42:15;100784.56;;;16.86
34023;BMP280;20673;48.980;8.138;2022-09-20T11:44:44;100785.71;;;16.73
34023;BMP280;20673;48.980;8.138;2022-09-20T11:47:30;100783.19;;;16.96
34023;BMP280;20673;48.980;8.138;2022-09-20T11:53:13;100787.57;;;18.68
34023;BMP280;20673;48.980;8.138;2022-09-20T11:56:06;100779.20;;;19.89
34023;BMP280;20673;48.980;8.138;2022-09-20T11:58:50;100775.56;;;20.85
34023;BMP280;20673;48.980;8.138;2022-09-20T12:01:39;100771.29;;;21.86
34023;BMP280;20673;48.980;8.138;2022-09-20T12:07:05;100770.45;;;22.99
34023;BMP280;20673;48.980;8.138;2022-09-20T12:09:35;100754.56;;;22.29
34023;BMP280;20673;48.980;8.138;2022-09-20T12:12:39;100750.84;;;21.64
34023;BMP280;20673;48.980;8.138;2022-09-20T12:15:30;100750.97;;;20.83
34023;BMP280;20673;48.980;8.138;2022-09-20T12:18:03;100742.78;;;20.13
34023;BMP280;20673;48.980;8.138;2022-09-20T12:28:58;100741.01;;;19.58
34023;BMP280;20673;48.980;8.138;2022-09-20T12:37:26;100735.56;;;19.93
34023;BMP280;20673;48.980;8.138;2022-09-20T12:39:17;100744.23;;;21.06
34023;BMP280;20673;48.980;8.138;2022-09-20T12:47:32;100735.65;;;19.98
34023;BMP280;20673;48.980;8.138;2022-09-20T12:50:14;100729.70;;;19.23
34023;BMP280;20673;48.980;8.138;2022-09-20T12:53:11;100740.03;;;18.70
34023;BMP280;20673;48.980;8.138;2022-09-20T12:58:50;100736.43;;;18.30
34023;BMP280;20673;48.980;8.138;2022-09-20T13:03:51;100741.81;;;17.92
34023;BMP280;20673;48.980;8.138;2022-09-20T13:06:22;100743.92;;;17.91
34023;BMP280;20673;48.980;8.138;2022-09-20T13:09:04;100739.44;;;17.87
34023;BMP280;20673;48.980;8.138;2022-09-20T13:14:24;100749.70;;;17.67
34023;BMP280;20673;48.980;8.138;2022-09-20T13:17:23;100747.36;;;17.64
34023;BMP280;20673;48.980;8.138;2022-09-20T13:19:51;100748.79;;;17.54
34023;BMP280;20673;48.980;8.138;2022-09-20T13:22:37;100746.57;;;17.46
34023;BMP280;20673;48.980;8.138;2022-09-20T13:25:14;100746.36;;;17.54
34023;BMP280;20673;48.980;8.138;2022-09-20T13:28:06;100744.52;;;17.52
34023;BMP280;20673;48.980;8.138;2022-09-20T13:30:35;100741.48;;;17.63
34023;BMP280;20673;48.980;8.138;2022-09-20T13:33:23;100743.86;;;17.72
34023;BMP280;20673;48.980;8.138;2022-09-20T13:35:56;100738.59;;;17.74
34023;BMP280;20673;48.980;8.138;2022-09-20T13:38:27;100738.97;;;17.90
34023;BMP280;20673;48.980;8.138;2022-09-20T13:41:08;100736.14;;;17.97
34023;BMP280;20673;48.980;8.138;2022-09-20T13:46:20;100735.14;;;17.77
34023;BMP280;20673;48.980;8.138;2022-09-20T13:49:13;100738.56;;;17.99
34023;BMP280;20673;48.980;8.138;2022-09-20T13:51:42;100734.34;;;18.00
34023;BMP280;20673;48.980;8.138;2022-09-20T13:54:29;100737.04;;;18.16
34023;BMP280;20673;48.980;8.138;2022-09-20T13:57:04;100731.31;;;18.07
34023;BMP280;20673;48.980;8.138;2022-09-20T13:59:35;100733.11;;;17.96
34023;BMP280;20673;48.980;8.138;2022-09-20T14:02:02;100730.42;;;18.08
34023;BMP280;20673;48.980;8.138;2022-09-20T14:04:30;100728.76;;;18.36
34023;BMP280;20673;48.980;8.138;2022-09-20T14:06:58;100736.20;;;18.32
34023;BMP280;20673;48.980;8.138;2022-09-20T14:09:37;100735.57;;;18.28
34023;BMP280;20673;48.980;8.138;2022-09-20T14:12:05;100737.36;;;18.09
34023;BMP280;20673;48.980;8.138;2022-09-20T14:14:33;100737.04;;;18.12
34023;BMP280;20673;48.980;8.138;2022-09-20T14:17:04;100734.90;;;18.10
34023;BMP280;20673;48.980;8.138;2022-09-20T14:19:36;100737.40;;;17.92
34023;BMP280;20673;48.980;8.138;2022-09-20T14:22:05;100735.43;;;17.82
34023;BMP280;20673;48.980;8.138;2022-09-20T14:24:34;100735.80;;;17.85
34023;BMP280;20673;48.980;8.138;2022-09-20T14:27:20;100734.81;;;17.75
34023;BMP280;20673;48.980;8.138;2022-09-20T14:29:52;100733.98;;;17.67
34023;BMP280;20673;48.980;8.138;2022-09-20T14:32:27;100732.33;;;17.70
34023;BMP280;20673;48.980;8.138;2022-09-20T14:35:19;100736.61;;;17.55
34023;BMP280;20673;48.980;8.138;2022-09-20T14:37:50;100733.18;;;17.58
34023;BMP280;20673;48.980;8.138;2022-09-20T14:40:27;100730.78;;;17.61
34023;BMP280;20673;48.980;8.138;2022-09-20T14:43:03;100732.04;;;17.60
34023;BMP280;20673;48.980;8.138;2022-09-20T14:45:36;100729.54;;;17.63
34023;BMP280;20673;48.980;8.138;2022-09-20T14:53:39;100745.51;;;18.88
34023;BMP280;20673;48.980;8.138;2022-09-20T14:56:09;100728.70;;;19.52
34023;BMP280;20673;48.980;8.138;2022-09-20T14:59:03;100726.83;;;19.30
34023;BMP280;20673;48.980;8.138;2022-09-20T15:01:32;100727.95;;;19.25
34023;BMP280;20673;48.980;8.138;2022-09-20T15:04:15;100729.78;;;19.65
34023;BMP280;20673;48.980;8.138;2022-09-20T15:06:36;100732.42;;;19.77
34023;BMP280;20673;48.980;8.138;2022-09-20T15:09:05;100733.08;;;20.61
34023;BMP280;20673;48.980;8.138;2022-09-20T15:11:31;100731.84;;;21.15
34023;BMP280;20673;48.980;8.138;2022-09-20T15:13:57;100727.47;;;21.89
34023;BMP280;20673;48.980;8.138;2022-09-20T15:16:23;100722.08;;;21.81
34023;BMP280;20673;48.980;8.138;2022-09-20T15:18:49;100720.98;;;21.21
34023;BMP280;20673;48.980;8.138;2022-09-20T15:21:15;100724.98;;;20.90
34023;BMP280;20673;48.980;8.138;2022-09-20T15:23:42;100726.20;;;19.67
34023;BMP280;20673;48.980;8.138;2022-09-20T15:26:10;100732.85;;;19.57
34023;BMP280;20673;48.980;8.138;2022-09-20T15:28:39;100748.11;;;18.86
34023;BMP280;20673;48.980;8.138;2022-09-20T15:31:05;100748.73;;;17.99
34023;BMP280;20673;48.980;8.138;2022-09-20T15:33:32;100742.13;;;17.21
34023;BMP280;20673;48.980;8.138;2022-09-20T15:36:01;100742.60;;;16.76
34023;BMP280;20673;48.980;8.138;2022-09-20T15:38:27;100745.23;;;16.26
34023;BMP280;20673;48.980;8.138;2022-09-20T15:40:54;100741.18;;;15.91
34023;BMP280;20673;48.980;8.138;2022-09-20T15:43:22;100741.26;;;15.87
34023;BMP280;20673;48.980;8.138;2022-09-20T15:45:57;100736.33;;;15.57
34023;BMP280;20673;48.980;8.138;2022-09-20T15:48:28;100740.08;;;15.64
34023;BMP280;20673;48.980;8.138;2022-09-20T15:51:00;100739.47;;;15.46
34023;BMP280;20673;48.980;8.138;2022-09-20T15:53:37;100742.64;;;15.43
34023;BMP280;20673;48.980;8.138;2022-09-20T15:56:19;100742.03;;;15.59
34023;BMP280;20673;48.980;8.138;2022-09-20T15:58:50;100745.55;;;15.76
34023;BMP280;20673;48.980;8.138;2022-09-20T16:01:18;100737.09;;;16.46
34023;BMP280;20673;48.980;8.138;2022-09-20T16:03:45;100738.83;;;16.66
34023;BMP280;20673;48.980;8.138;2022-09-20T16:06:12;100738.76;;;16.61
34023;BMP280;20673;48.980;8.138;2022-09-20T16:08:41;100739.27;;;16.52
34023;BMP280;20673;48.980;8.138;2022-09-20T16:11:13;100741.84;;;16.33
34023;BMP280;20673;48.980;8.138;2022-09-20T16:13:40;100744.62;;;15.92
34023;BMP280;20673;48.980;8.138;2022-09-20T16:16:09;100744.84;;;15.73
34023;BMP280;20673;48.980;8.138;2022-09-20T16:18:38;100748.89;;;15.67
34023;BMP280;20673;48.980;8.138;2022-09-20T16:21:23;100753.68;;;15.50
34023;BMP280;20673;48.980;8.138;2022-09-20T16:23:52;100761.11;;;15.41
34023;BMP280;20673;48.980;8.138;2022-09-20T16:26:21;100761.22;;;15.27
34023;BMP280;20673;48.980;8.138;2022-09-20T16:28:48;100760.17;;;15.20
34023;BMP280;20673;48.980;8.138;2022-09-20T16:31:36;100757.25;;;15.13
34023;BMP280;20673;48.980;8.138;2022-09-20T16:34:16;100756.59;;;15.06
34023;BMP280;20673;48.980;8.138;2022-09-20T16:36:50;100765.53;;;14.95
34023;BMP280;20673;48.980;8.138;2022-09-20T16:39:20;100766.36;;;14.86
34023;BMP280;20673;48.980;8.138;2022-09-20T16:41:47;100771.07;;;14.85
34023;BMP280;20673;48.980;8.138;2022-09-20T16:44:14;100769.81;;;14.77
34023;BMP280;20673;48.980;8.138;2022-09-20T16:46:40;100773.60;;;14.75
34023;BMP280;20673;48.980;8.138;2022-09-20T16:49:08;100773.36;;;14.71
34023;BMP280;20673;48.980;8.138;2022-09-20T16:51:38;100772.72;;;14.63
34023;BMP280;20673;48.980;8.138;2022-09-20T16:54:14;100772.22;;;14.59
34023;BMP280;20673;48.980;8.138;2022-09-20T16:56:44;100773.81;;;14.58
34023;BMP280;20673;48.980;8.138;2022-09-20T16:59:13;100776.83;;;14.54
34023;BMP280;20673;48.980;8.138;2022-09-20T17:01:41;100775.16;;;14.50
34023;BMP280;20673;48.980;8.138;2022-09-20T17:04:09;100778.20;;;14.47
34023;BMP280;20673;48.980;8.138;2022-09-20T17:06:38;100777.54;;;14.45
34023;BMP280;20673;48.980;8.138;2022-09-20T17:09:06;100783.86;;;14.39
34023;BMP280;20673;48.980;8.138;2022-09-20T17:11:36;100786.81;;;14.37
34023;BMP280;20673;48.980;8.138;2022-09-20T17:14:04;100786.61;;;14.29
34023;BMP280;20673;48.980;8.138;2022-09-20T17:16:35;100791.72;;;14.22
34023;BMP280;20673;48.980;8.138;2022-09-20T17:19:05;100787.29;;;14.17
34023;BMP280;20673;48.980;8.138;2022-09-20T17:21:33;100787.40;;;14.11
34023;BMP280;20673;48.980;8.138;2022-09-20T17:24:02;100796.90;;;14.09
34023;BMP280;20673;48.980;8.138;2022-09-20T17:26:32;100795.26;;;14.04
34023;BMP280;20673;48.980;8.138;2022-09-20T17:29:01;100795.28;;;13.97
34023;BMP280;20673;48.980;8.138;2022-09-20T17:31:32;100794.05;;;13.92
34023;BMP280;20673;48.980;8.138;2022-09-20T17:34:00;100798.00;;;13.85
34023;BMP280;20673;48.980;8.138;2022-09-20T17:36:30;100803.72;;;13.84
34023;BMP280;20673;48.980;8.138;2022-09-20T17:39:00;100810.23;;;13.81
34023;BMP280;20673;48.980;8.138;2022-09-20T17:41:27;100804.40;;;13.83
34023;BMP280;20673;48.980;8.138;2022-09-20T17:43:59;100810.14;;;13.76
34023;BMP280;20673;48.980;8.138;2022-09-20T17:46:29;100812.47;;;13.68
34023;BMP280;20673;48.980;8.138;2022-09-20T17:48:59;100810.23;;;13.67
34023;BMP280;20673;48.980;8.138;2022-09-20T17:54:03;100811.84;;;13.61
34023;BMP280;20673;48.980;8.138;2022-09-20T17:56:30;100810.97;;;13.58
34023;BMP280;20673;48.980;8.138;2022-09-20T17:59:04;100816.83;;;13.56
34023;BMP280;20673;48.980;8.138;2022-09-20T18:01:29;100816.98;;;13.52
34023;BMP280;20673;48.980;8.138;2022-09-20T18:03:58;100814.16;;;13.47
34023;BMP280;20673;48.980;8.138;2022-09-20T18:06:30;100819.87;;;13.43
34023;BMP280;20673;48.980;8.138;2022-09-20T18:09:00;100820.61;;;13.39
34023;BMP280;20673;48.980;8.138;2022-09-20T18:11:34;100822.23;;;13.35
34023;BMP280;20673;48.980;8.138;2022-09-20T18:14:03;100822.62;;;13.33
34023;BMP280;20673;48.980;8.138;2022-09-20T18:16:30;100834.55;;;13.27
34023;BMP280;20673;48.980;8.138;2022-09-20T18:18:57;100834.03;;;13.25
34023;BMP280;20673;48.980;8.138;2022-09-20T18:21:27;100833.68;;;13.21
34023;BMP280;20673;48.980;8.138;2022-09-20T18:23:54;100838.16;;;13.17
34023;BMP280;20673;48.980;8.138;2022-09-20T18:26:28;100839.00;;;13.19
34023;BMP280;20673;48.980;8.138;2022-09-20T18:29:06;100844.74;;;13.13
34023;BMP280;20673;48.980;8.138;2022-09-20T18:31:48;100843.58;;;13.02
34023;BMP280;20673;48.980;8.138;2022-09-20T18:34:19;100851.50;;;13.04
34023;BMP280;20673;48.980;8.138;2022-09-20T18:36:56;100847.48;;;12.98
34023;BMP280;20673;48.980;8.138;2022-09-20T18:41:53;100843.23;;;12.90
34023;BMP280;20673;48.980;8.138;2022-09-20T18:44:22;100843.40;;;12.88
34023;BMP280;20673;48.980;8.138;2022-09-20T18:46:49;100847.97;;;12.89
34023;BMP280;20673;48.980;8.138;2022-09-20T18:49:17;100847.92;;;12.81
34023;BMP280;20673;48.980;8.138;2022-09-20T18:51:46;100855.58;;;12.82
34023;BMP280;20673;48.980;8.138;2022-09-20T18:54:14;100854.36;;;12.80
34023;BMP280;20673;48.980;8.138;2022-09-20T18:56:42;100855.11;;;12.77
34023;BMP280;20673;48.980;8.138;2022-09-20T18:59:21;100854.86;;;12.77
34023;BMP280;20673;48.980;8.138;2022-09-20T19:07:52;100860.48;;;12.79
34023;BMP280;20673;48.980;8.138;2022-09-20T19:22:03;100874.93;;;12.58
34023;BMP280;20673;48.980;8.138;2022-09-20T19:27:26;100883.91;;;12.56
34023;BMP280;20673;48.980;8.138;2022-09-20T19:29:53;100885.22;;;12.57
34023;BMP280;20673;48.980;8.138;2022-09-20T19:32:20;100886.28;;;12.56
34023;BMP280;20673;48.980;8.138;2022-09-20T19:34:54;100883.22;;;12.57
34023;BMP280;20673;48.980;8.138;2022-09-20T19:37:48;100891.00;;;12.54
34023;BMP280;20673;48.980;8.138;2022-09-20T19:51:56;100894.36;;;12.35
34023;BMP280;20673;48.980;8.138;2022-09-20T19:54:23;100899.76;;;12.36
34023;BMP280;20673;48.980;8.138;2022-09-20T19:56:55;100890.45;;;12.36
34023;BMP280;20673;48.980;8.138;2022-09-20T19:59:25;100897.61;;;12.35
34023;BMP280;20673;48.980;8.138;2022-09-20T20:01:53;100897.83;;;12.35
34023;BMP280;20673;48.980;8.138;2022-09-20T20:04:20;100894.26;;;12.36
34023;BMP280;20673;48.980;8.138;2022-09-20T20:16:11;100902.37;;;12.33
34023;BMP280;20673;48.980;8.138;2022-09-20T20:21:37;100906.70;;;12.29
34023;BMP280;20673;48.980;8.138;2022-09-20T20:24:18;100907.71;;;12.29
34023;BMP280;20673;48.980;8.138;2022-09-20T20:26:45;100912.50;;;12.27
34023;BMP280;20673;48.980;8.138;2022-09-20T20:29:11;100910.54;;;12.23
34023;BMP280;20673;48.980;8.138;2022-09-20T20:31:37;100913.14;;;12.24
34023;BMP280;20673;48.980;8.138;2022-09-20T20:34:03;100908.43;;;12.18
34023;BMP280;20673;48.980;8.138;2022-09-20T20:36:29;100911.23;;;12.14